Aviation Digital Data Service (ADDS)

Output produced by METARs form (0134 UTC 21 September 2021)
found at http://aviationweather.gov/metar/data/
 
TAF EHAM 202237Z 2100/2206 VRB02KT CAVOK 
     BECMG 2107/2110 26007KT 
     BECMG 2122/2201 6000 
     PROB30 2200/2206 1200 BCFG